Detall de PIREP

Printer-friendly versionPDF version

[2015/11/07 11:15:00]
Flight IATA:CT3304
Pilot Number:012
Company ICAO:CAT
Aircraft Type:MD11/E
PAX:114
Aircraft Registration:PAX
Departing Airport: LEZG
Destination Airport: GMMN
Alternate Airport:GMMX
Online: VATSIM
Route:SURCO UN869 GALTO UB11 BISMI
Flight Level:F330
No Slew and time accel
No pause
Crash detect
Detect pilot in Cockpit between each 30 and 45 minutes
11:15 Zero fuel Weight: 331302 Lbs, Fuel Weight: 44936 Lbs
11:15 VATSIM:LEZG 071100Z 10003KT 060V160 6000 NSC 17/14 Q1028
11:15 VATSIM:GMMN 071100Z 21005KT CAVOK 27/15 Q1021 NOSIG
11:15 Parking Brakes off
11:19 Take-off
11:19 Take off Weight: 375319 Lbs
11:19 Wind: 101º @ 003 Knots Heading: 300º
11:19 POS N41º 39´ 45´´ W001º 01´ 31´´
11:19 Gear Up: 205 Knots
11:19 Flaps:3 at 205 Knots
11:19 Flaps:2 at 219 Knots
11:20 Flaps:3 at 220 Knots
11:20 Flaps:2 at 221 Knots
11:20 Flaps:1 at 221 Knots
11:20 Flaps:0 at 232 Knots
11:28 TOC
11:28 Fuel Weight: 37621 Lb
11:34 Wind:311º@014 Knots Heading: 215º Ground Speed: 488 Knots Altitude 35436 ft
11:49 Wind:298º@012 Knots Heading: 202º Ground Speed: 486 Knots Altitude 35452 ft
12:04 Wind:337º@013 Knots Heading: 204º Ground Speed: 495 Knots Altitude 35406 ft
12:19 Wind:339º@014 Knots Heading: 217º Ground Speed: 489 Knots Altitude 35341 ft
12:29 TOD
12:29 Fuel Weight: 23335 Lb
12:34 Wind:122º@005 Knots Heading: 223º Ground Speed: 423 Knots Altitude 24557 ft
12:42 Flaps:1 at 265 Knots
12:45 Flaps:2 at 240 Knots
12:45 Flaps:3 at 235 Knots
12:46 Gear Down: 211 Knots
12:46 Flaps:4 at 209 Knots
12:46 Flaps:3 at 207 Knots
12:46 Flaps:4 at 205 Knots
12:46 Flaps:5 at 197 Knots
12:46 Flaps:6 at 190 Knots
12:46 Flaps:7 at 170 Knots
12:49 Wind:252º@005 Knots Heading: 342º Ground Speed: 183 Knots Altitude 2647 ft
12:50 TouchDown:Rate -300 ft/min Speed: 163 Knots
12:50 VATSIM:GMMN 071230Z 27007KT CAVOK 29/15 Q1020 NOSIG
12:50 Land
12:50 Wind:253º@005 Knots
12:50 Heading: 344º
12:50 Flight Duration: 01:31
12:50 Landing Weight: 351800 Lbs
12:50 POS N33º 22´ 07´´ W007º 35´ 34´´
12:53 Parking brakes on
12:53 Block to Block Duration: 01:38
12:53 Final Fuel: 20244 Lbls
12:53 Spent Fuel: 24691 Lbls
12:53 Flight Length: 678 NM
12:53 TOD Land Length: 118 NM

Exportar CSV

Powered by Drupal - Modified by Danger4k